createdAt,value
2019-02-17T00:01:21.137Z,100012.88
2019-02-17T00:03:49.197Z,100019.02
2019-02-17T00:06:20.189Z,100020.27
2019-02-17T00:08:48.727Z,100019.75
2019-02-17T00:11:19.592Z,100017.66
2019-02-17T00:13:49.676Z,100014.21
2019-02-17T00:16:19.113Z,100014.64
2019-02-17T00:18:49.934Z,100016.44
2019-02-17T00:21:18.493Z,100019.92
2019-02-17T00:23:47.098Z,100019.56
2019-02-17T00:26:17.562Z,100022.66
2019-02-17T00:28:45.474Z,100013.84
2019-02-17T00:31:13.876Z,99960.78
2019-02-17T00:33:42.144Z,100013.00
2019-02-17T00:36:10.635Z,100023.83
2019-02-17T00:38:39.798Z,100022.08
2019-02-17T00:41:07.663Z,100024.05
2019-02-17T00:43:36.115Z,99984.30
2019-02-17T00:46:04.369Z,99980.56
2019-02-17T00:48:35.407Z,100027.37
2019-02-17T00:51:05.573Z,100026.73
2019-02-17T00:53:33.378Z,100029.48
2019-02-17T00:56:01.836Z,100028.51
2019-02-17T00:58:31.176Z,99944.02
2019-02-17T01:00:59.954Z,100028.11
2019-02-17T01:03:27.936Z,100027.15
2019-02-17T01:05:56.872Z,100028.55
2019-02-17T01:08:27.475Z,100026.03
2019-02-17T01:10:58.732Z,100029.39
2019-02-17T01:13:28.383Z,100025.14
2019-02-17T01:15:57.840Z,99929.68
2019-02-17T01:18:26.312Z,100026.93
2019-02-17T01:20:55.667Z,100022.95
2019-02-17T01:23:24.622Z,100021.88
2019-02-17T01:25:52.853Z,100022.49
2019-02-17T01:28:22.737Z,100026.43
2019-02-17T01:30:50.830Z,100028.98
2019-02-17T01:33:21.890Z,100021.53
2019-02-17T01:35:51.455Z,99871.30
2019-02-17T01:38:19.407Z,100008.41
2019-02-17T01:40:50.301Z,100036.24
2019-02-17T01:43:19.089Z,100033.36
2019-02-17T01:45:47.887Z,100030.47
2019-02-17T01:48:16.301Z,100022.89
2019-02-17T01:50:44.029Z,100014.97
2019-02-17T01:53:12.427Z,100012.88
2019-02-17T01:55:40.394Z,100001.57
2019-02-17T01:58:08.996Z,100022.53
2019-02-17T02:00:37.372Z,100007.33
2019-02-17T02:03:05.523Z,100022.15
2019-02-17T02:05:33.503Z,100003.66
2019-02-17T02:08:02.289Z,100022.25
2019-02-17T02:10:30.957Z,100017.36
2019-02-17T02:12:59.387Z,99976.03
2019-02-17T02:15:27.849Z,99992.02
2019-02-17T02:17:56.074Z,100015.30
2019-02-17T02:20:24.494Z,100008.63
2019-02-17T02:22:52.418Z,99959.62
2019-02-17T02:25:20.858Z,99843.41
2019-02-17T02:27:50.569Z,99939.86
2019-02-17T02:30:18.919Z,99996.09
2019-02-17T02:32:47.117Z,99994.52
2019-02-17T02:35:15.189Z,100000.41
2019-02-17T02:37:43.120Z,100008.88
2019-02-17T02:40:11.169Z,99999.48
2019-02-17T02:42:39.658Z,99995.78
2019-02-17T02:45:09.202Z,99993.46
2019-02-17T02:47:37.320Z,99994.42
2019-02-17T02:50:06.509Z,99992.09
2019-02-17T02:52:34.408Z,99982.53
2019-02-17T02:55:02.602Z,99987.61
2019-02-17T02:57:31.077Z,99982.48
2019-02-17T02:59:59.226Z,99946.19
2019-02-17T03:02:27.354Z,99982.31
2019-02-17T03:04:55.797Z,99984.88
2019-02-17T03:07:23.947Z,99969.00
2019-02-17T03:09:52.239Z,99968.84
2019-02-17T03:12:20.947Z,99969.25
2019-02-17T03:14:50.195Z,99972.59
2019-02-17T03:17:18.147Z,99970.83
2019-02-17T03:19:46.173Z,99979.08
2019-02-17T03:22:14.136Z,99965.41
2019-02-17T03:24:42.314Z,99969.33
2019-02-17T03:27:10.835Z,99891.22
2019-02-17T03:29:39.060Z,99979.16
2019-02-17T03:32:06.998Z,99971.33
2019-02-17T03:34:35.476Z,99972.30
2019-02-17T03:37:03.537Z,99966.41
2019-02-17T03:39:31.599Z,99968.58
2019-02-17T03:42:00.299Z,99971.70
2019-02-17T03:44:28.390Z,99969.56
2019-02-17T03:46:56.605Z,99970.95
2019-02-17T03:49:24.667Z,99970.95
2019-02-17T03:51:52.606Z,99971.94
2019-02-17T03:54:20.641Z,99965.70
2019-02-17T03:56:48.531Z,99966.68
2019-02-17T03:59:17.020Z,99974.52
2019-02-17T04:01:45.087Z,99969.45
2019-02-17T04:04:13.158Z,99964.78
2019-02-17T04:06:41.548Z,99959.12
2019-02-17T04:09:09.680Z,99965.78
2019-02-17T04:11:37.471Z,99976.00
2019-02-17T04:14:06.076Z,99998.36
2019-02-17T04:16:34.099Z,99971.30
2019-02-17T04:19:02.069Z,99965.23
2019-02-17T04:21:33.311Z,99963.86
2019-02-17T04:23:59.344Z,99965.64
2019-02-17T04:26:27.680Z,99959.18
2019-02-17T04:28:56.232Z,99969.75
2019-02-17T04:31:24.224Z,99962.70
2019-02-17T04:33:52.342Z,99970.72
2019-02-17T04:36:20.072Z,99962.08
2019-02-17T04:38:48.014Z,99963.06
2019-02-17T04:41:16.224Z,99962.48
2019-02-17T04:43:44.595Z,99963.85
2019-02-17T04:46:12.699Z,99965.05
2019-02-17T04:48:40.889Z,99815.94
2019-02-17T04:51:09.427Z,99957.39
2019-02-17T04:53:37.643Z,99929.42
2019-02-17T04:56:05.908Z,99956.59
2019-02-17T04:58:34.349Z,99960.94
2019-02-17T05:01:02.472Z,99955.28
2019-02-17T05:03:31.029Z,99955.48
2019-02-17T05:05:59.312Z,99958.23
2019-02-17T05:08:27.511Z,99953.14
2019-02-17T05:10:55.804Z,99951.19
2019-02-17T05:13:24.400Z,99950.01
2019-02-17T05:15:52.896Z,99950.01
2019-02-17T05:18:20.966Z,99946.30
2019-02-17T05:20:49.351Z,99942.39
2019-02-17T05:23:17.324Z,99946.12
2019-02-17T05:25:45.649Z,99948.08
2019-02-17T05:28:13.806Z,99952.80
2019-02-17T05:30:52.309Z,99945.74
2019-02-17T05:33:10.169Z,99942.43
2019-02-17T05:35:38.706Z,99941.06
2019-02-17T05:38:06.777Z,99935.98
2019-02-17T05:40:36.412Z,99934.03
2019-02-17T05:43:03.042Z,99934.44
2019-02-17T05:45:31.223Z,99939.34
2019-02-17T05:47:59.591Z,99952.08
2019-02-17T05:50:28.800Z,99945.00
2019-02-17T05:52:56.953Z,99913.95
2019-02-17T05:55:25.171Z,99990.45
2019-02-17T05:57:53.758Z,99946.38
2019-02-17T06:00:31.711Z,99951.30
2019-02-17T06:02:59.827Z,99935.47
2019-02-17T06:05:27.992Z,99901.27
2019-02-17T06:07:58.729Z,99951.34
2019-02-17T06:10:46.971Z,99952.09
2019-02-17T06:13:23.132Z,99959.55
2019-02-17T06:15:51.840Z,99961.11
2019-02-17T06:18:21.658Z,99961.72
2019-02-17T06:20:50.953Z,99961.50
2019-02-17T06:23:19.241Z,99970.33
2019-02-17T06:25:47.928Z,99945.67
2019-02-17T06:28:16.049Z,99966.59
2019-02-17T06:30:44.541Z,99965.83
2019-02-17T06:33:13.628Z,99954.68
2019-02-17T06:35:41.854Z,99971.67
2019-02-17T06:38:10.069Z,99768.92
2019-02-17T06:40:38.360Z,99973.44
2019-02-17T06:43:06.144Z,99974.80
2019-02-17T06:45:34.720Z,100000.84
2019-02-17T06:48:02.932Z,99952.52
2019-02-17T06:50:32.818Z,99974.23
2019-02-17T06:52:59.305Z,99973.62
2019-02-17T06:55:37.934Z,99896.58
2019-02-17T06:58:06.136Z,99977.16
2019-02-17T07:00:36.474Z,99972.46
2019-02-17T07:03:04.250Z,99970.70
2019-02-17T07:05:46.164Z,99928.23
2019-02-17T07:08:14.209Z,99977.52
2019-02-17T07:10:42.420Z,99976.75
2019-02-17T07:13:10.899Z,99974.98
2019-02-17T07:15:42.667Z,99972.41
2019-02-17T07:18:11.134Z,99966.53
2019-02-17T07:20:39.304Z,99974.93
2019-02-17T07:23:07.205Z,99975.32
2019-02-17T07:25:35.386Z,99982.17
2019-02-17T07:28:03.324Z,99960.24
2019-02-17T07:30:33.942Z,99798.22
2019-02-17T07:33:01.933Z,99972.33
2019-02-17T07:35:29.878Z,99968.60
2019-02-17T07:37:59.771Z,99970.53
2019-02-17T07:40:29.030Z,99975.04
2019-02-17T07:42:56.950Z,99974.62
2019-02-17T07:45:25.048Z,99896.89
2019-02-17T07:47:53.239Z,99760.91
2019-02-17T07:50:21.505Z,99980.42
2019-02-17T07:52:49.355Z,99984.10
2019-02-17T07:55:17.111Z,99986.02
2019-02-17T07:57:45.314Z,99985.18
2019-02-17T08:00:13.766Z,99974.34
2019-02-17T08:02:42.123Z,99956.91
2019-02-17T08:05:10.178Z,99952.70
2019-02-17T08:07:38.576Z,99970.21
2019-02-17T08:10:07.192Z,99968.75
2019-02-17T08:12:35.267Z,99953.41
2019-02-17T08:15:03.917Z,99965.38
2019-02-17T08:17:32.005Z,99910.03
2019-02-17T08:20:00.168Z,99889.97
2019-02-17T08:22:29.459Z,99965.79
2019-02-17T08:24:57.752Z,99958.73
2019-02-17T08:27:25.783Z,99956.99
2019-02-17T08:29:53.992Z,99960.55
2019-02-17T08:32:21.748Z,99953.81
2019-02-17T08:34:49.863Z,99950.84
2019-02-17T08:37:17.627Z,99956.08
2019-02-17T08:39:46.307Z,99956.15
2019-02-17T08:42:16.581Z,99685.11
2019-02-17T08:44:47.684Z,99791.98
2019-02-17T08:47:15.532Z,99947.56
2019-02-17T08:49:46.295Z,99942.39
2019-02-17T08:52:14.953Z,99947.82
2019-02-17T08:54:43.243Z,99942.56
2019-02-17T08:57:11.332Z,99937.63
2019-02-17T08:59:39.453Z,99959.94
2019-02-17T09:02:09.832Z,99920.58
2019-02-17T09:04:38.664Z,99932.00
2019-02-17T09:07:07.685Z,99790.33
2019-02-17T09:09:35.838Z,99931.41
2019-02-17T09:12:04.872Z,99894.98
2019-02-17T09:14:36.285Z,99837.78
2019-02-17T09:17:04.352Z,99919.19
2019-02-17T09:19:34.635Z,99915.41
2019-02-17T09:22:03.463Z,99915.11
2019-02-17T09:24:31.663Z,99917.47
2019-02-17T09:27:00.193Z,99895.05
2019-02-17T09:29:29.692Z,99845.38
2019-02-17T09:32:00.612Z,99826.20
2019-02-17T09:34:31.735Z,99917.83
2019-02-17T09:37:02.881Z,99912.50
2019-02-17T09:39:36.667Z,99921.39
2019-02-17T09:42:04.517Z,99915.64
2019-02-17T09:44:35.622Z,99836.90
2019-02-17T09:47:05.350Z,99912.77
2019-02-17T09:49:39.322Z,99910.48
2019-02-17T09:52:08.470Z,99920.38
2019-02-17T09:54:36.918Z,99913.79
2019-02-17T09:57:06.170Z,99916.11
2019-02-17T09:59:34.478Z,99691.73
2019-02-17T10:02:02.593Z,99909.99
2019-02-17T10:04:31.343Z,99909.75
2019-02-17T10:07:01.774Z,99911.81
2019-02-17T10:09:29.769Z,99915.04
2019-02-17T10:11:57.928Z,99913.92
2019-02-17T10:14:26.150Z,99910.48
2019-02-17T10:16:54.652Z,99910.78
2019-02-17T10:19:24.488Z,99926.05
2019-02-17T10:21:53.582Z,99906.73
2019-02-17T10:24:22.263Z,99910.52
2019-02-17T10:26:53.406Z,99907.28
2019-02-17T10:29:25.686Z,99941.66
2019-02-17T10:31:57.176Z,99906.39
2019-02-17T10:34:27.095Z,99907.02
2019-02-17T10:36:55.198Z,99898.30
2019-02-17T10:39:23.608Z,99886.64
2019-02-17T10:41:51.662Z,99905.59
2019-02-17T10:44:19.625Z,99901.95
2019-02-17T10:46:47.792Z,99908.50
2019-02-17T10:49:16.247Z,99897.71
2019-02-17T10:51:44.365Z,99895.64
2019-02-17T10:54:13.839Z,99898.27
2019-02-17T10:56:43.372Z,99891.51
2019-02-17T10:59:11.994Z,99861.64
2019-02-17T11:01:39.873Z,99891.48
2019-02-17T11:04:13.613Z,99831.56
2019-02-17T11:06:41.963Z,99874.00
2019-02-17T11:09:19.387Z,99880.31
2019-02-17T11:11:47.204Z,99875.38
2019-02-17T11:14:15.233Z,99869.66
2019-02-17T11:16:46.385Z,99874.17
2019-02-17T11:19:18.100Z,99795.72
2019-02-17T11:21:55.820Z,99697.03
2019-02-17T11:24:25.360Z,99860.38
2019-02-17T11:26:57.343Z,99857.81
2019-02-17T11:29:25.673Z,99852.36
2019-02-17T11:31:53.981Z,99781.14
2019-02-17T11:34:21.868Z,99797.28
2019-02-17T11:36:49.945Z,99842.94
2019-02-17T11:39:21.460Z,99837.13
2019-02-17T11:41:49.580Z,99842.15
2019-02-17T11:44:18.865Z,99837.96
2019-02-17T11:46:49.091Z,99838.95
2019-02-17T11:49:22.446Z,99833.80
2019-02-17T11:51:54.134Z,99832.95
2019-02-17T11:54:22.527Z,99835.29
2019-02-17T11:56:51.690Z,99761.89
2019-02-17T11:59:21.012Z,99831.23
2019-02-17T12:01:48.897Z,99828.66
2019-02-17T12:04:25.002Z,99831.82
2019-02-17T12:06:54.677Z,99827.18
2019-02-17T12:09:25.200Z,99823.19
2019-02-17T12:11:53.774Z,99827.48
2019-02-17T12:14:26.425Z,99815.45
2019-02-17T12:16:55.103Z,99757.42
2019-02-17T12:19:29.068Z,99821.27
2019-02-17T12:22:03.938Z,99815.58
2019-02-17T12:24:40.769Z,99816.45
2019-02-17T12:27:18.454Z,99805.91
2019-02-17T12:29:51.208Z,99764.22
2019-02-17T12:32:22.057Z,99800.23
2019-02-17T12:34:50.086Z,99795.55
2019-02-17T12:39:52.977Z,99753.08
2019-02-17T12:42:20.867Z,99785.20
2019-02-17T12:44:48.621Z,99780.33
2019-02-17T12:47:19.617Z,99777.20
2019-02-17T12:49:47.875Z,99801.06
2019-02-17T12:52:16.850Z,99762.56
2019-02-17T12:54:46.203Z,99774.38
2019-02-17T12:57:25.223Z,99769.88
2019-02-17T12:59:53.830Z,99769.20
2019-02-17T13:02:21.950Z,99765.37
2019-02-17T13:04:54.083Z,99766.98
2019-02-17T13:07:22.525Z,99761.78
2019-02-17T13:09:50.462Z,99764.53
2019-02-17T13:12:19.328Z,99744.74
2019-02-17T13:14:50.003Z,99760.97
2019-02-17T13:17:22.271Z,99760.13
2019-02-17T13:19:52.627Z,99756.81
2019-02-17T13:22:23.533Z,99721.02
2019-02-17T13:24:53.812Z,99750.50
2019-02-17T13:27:22.068Z,99736.32
2019-02-17T13:29:50.268Z,99748.20
2019-02-17T13:32:23.634Z,99630.38
2019-02-17T13:34:52.094Z,99743.40
2019-02-17T13:37:23.490Z,99741.86
2019-02-17T13:39:52.559Z,99735.35
2019-02-17T13:42:23.164Z,99627.43
2019-02-17T13:44:57.471Z,99733.30
2019-02-17T13:47:28.925Z,99528.64
2019-02-17T13:49:57.012Z,99727.00
2019-02-17T13:52:26.027Z,99730.97
2019-02-17T13:54:57.412Z,99537.06
2019-02-17T13:57:25.876Z,99713.75
2019-02-17T13:59:53.771Z,99721.51
2019-02-17T14:02:22.418Z,99722.45
2019-02-17T14:04:51.205Z,99723.59
2019-02-17T14:07:20.498Z,99723.41
2019-02-17T14:09:49.570Z,99720.83
2019-02-17T14:12:26.433Z,99713.16
2019-02-17T14:14:56.571Z,99599.51
2019-02-17T14:17:26.609Z,99646.03
2019-02-17T14:19:56.475Z,99704.88
2019-02-17T14:22:24.356Z,99699.72
2019-02-17T14:24:52.605Z,99696.14
2019-02-17T14:27:21.158Z,99710.88
2019-02-17T14:29:59.220Z,99703.73
2019-02-17T14:32:27.465Z,99698.94
2019-02-17T14:34:55.756Z,99700.23
2019-02-17T14:37:24.349Z,99699.09
2019-02-17T14:39:52.593Z,99701.73
2019-02-17T14:42:20.522Z,99705.00
2019-02-17T14:44:48.984Z,99691.34
2019-02-17T14:47:17.322Z,99691.83
2019-02-17T14:49:45.459Z,99606.52
2019-02-17T14:52:14.169Z,99685.42
2019-02-17T14:54:42.606Z,99666.02
2019-02-17T14:57:10.792Z,99627.70
2019-02-17T14:59:39.990Z,99675.02
2019-02-17T15:02:08.795Z,99635.02
2019-02-17T15:04:37.035Z,99667.58
2019-02-17T15:07:05.768Z,99665.37
2019-02-17T15:09:34.113Z,99669.38
2019-02-17T15:12:02.884Z,99660.41
2019-02-17T15:14:31.583Z,99658.98
2019-02-17T15:16:59.393Z,99659.17
2019-02-17T15:19:27.600Z,99651.37
2019-02-17T15:21:55.774Z,99658.56
2019-02-17T15:24:24.716Z,99659.52
2019-02-17T15:26:52.582Z,99669.83
2019-02-17T15:29:20.834Z,99652.59
2019-02-17T15:31:49.379Z,99644.39
2019-02-17T15:34:18.953Z,99632.89
2019-02-17T15:36:49.469Z,99638.91
2019-02-17T15:39:17.758Z,99642.77
2019-02-17T15:41:46.159Z,99639.52
2019-02-17T15:44:15.224Z,99639.71
2019-02-17T15:46:43.469Z,99637.06
2019-02-17T15:49:11.421Z,99636.30
2019-02-17T15:51:39.932Z,99614.09
2019-02-17T15:54:08.717Z,99616.78
2019-02-17T15:56:39.797Z,99632.38
2019-02-17T15:59:08.604Z,99636.14
2019-02-17T16:01:37.868Z,99639.22
2019-02-17T16:04:07.365Z,99638.95
2019-02-17T16:06:36.498Z,99630.95
2019-02-17T16:09:06.808Z,99633.06
2019-02-17T16:11:35.253Z,99629.41
2019-02-17T16:14:03.664Z,99518.03
2019-02-17T16:16:32.327Z,99627.66
2019-02-17T16:19:02.510Z,99626.44
2019-02-17T16:21:30.512Z,99595.35
2019-02-17T16:24:00.307Z,99623.20
2019-02-17T16:26:28.470Z,99601.02
2019-02-17T16:28:56.656Z,99623.64
2019-02-17T16:31:28.614Z,99611.41
2019-02-17T16:33:57.755Z,99599.08
2019-02-17T16:36:28.721Z,99618.13
2019-02-17T16:38:56.651Z,99617.78
2019-02-17T16:41:25.621Z,99582.28
2019-02-17T16:43:53.783Z,99612.87
2019-02-17T16:46:22.026Z,99617.31
2019-02-17T16:48:51.230Z,99608.38
2019-02-17T16:51:19.531Z,99612.28
2019-02-17T16:53:47.378Z,99604.70
2019-02-17T16:56:17.129Z,99568.91
2019-02-17T16:58:45.153Z,99608.75
2019-02-17T17:01:13.395Z,99611.70
2019-02-17T17:03:43.268Z,99607.94
2019-02-17T17:06:11.313Z,99612.84
2019-02-17T17:08:40.185Z,99601.23
2019-02-17T17:11:09.863Z,99618.14
2019-02-17T17:13:39.077Z,99634.03
2019-02-17T17:16:07.666Z,99614.86
2019-02-17T17:18:35.955Z,99616.22
2019-02-17T17:21:04.000Z,99613.14
2019-02-17T17:23:31.794Z,99616.99
2019-02-17T17:25:59.614Z,99620.65
2019-02-17T17:28:27.767Z,99602.98
2019-02-17T17:30:55.713Z,99623.29
2019-02-17T17:33:23.660Z,99600.44
2019-02-17T17:35:52.192Z,99624.30
2019-02-17T17:38:20.745Z,99609.00
2019-02-17T17:40:51.101Z,99623.39
2019-02-17T17:43:20.531Z,99618.27
2019-02-17T17:45:48.315Z,99600.59
2019-02-17T17:48:16.898Z,99643.54
2019-02-17T17:50:45.026Z,99613.37
2019-02-17T17:53:14.190Z,99617.30
2019-02-17T17:55:44.408Z,99620.78
2019-02-17T17:58:12.530Z,99618.62
2019-02-17T18:00:43.669Z,99622.15
2019-02-17T18:03:12.595Z,99627.25
2019-02-17T18:05:40.505Z,99558.39
2019-02-17T18:08:09.018Z,99628.56
2019-02-17T18:10:37.441Z,99629.88
2019-02-17T18:13:07.089Z,99561.30
2019-02-17T18:15:35.387Z,99632.80
2019-02-17T18:18:09.149Z,99627.70
2019-02-17T18:20:37.415Z,99578.52
2019-02-17T18:23:06.499Z,99613.53
2019-02-17T18:25:34.457Z,99627.81
2019-02-17T18:28:03.925Z,99623.00
2019-02-17T18:30:32.272Z,99624.38
2019-02-17T18:33:02.408Z,99625.12
2019-02-17T18:35:30.793Z,99626.00
2019-02-17T18:38:00.538Z,99619.72
2019-02-17T18:40:29.151Z,99617.78
2019-02-17T18:42:57.281Z,99620.09
2019-02-17T18:45:27.178Z,99622.93
2019-02-17T18:47:55.663Z,99615.59
2019-02-17T18:50:24.207Z,99621.73
2019-02-17T18:52:52.519Z,99666.80
2019-02-17T18:55:20.493Z,99618.03
2019-02-17T18:57:50.904Z,99612.92
2019-02-17T19:00:17.947Z,99600.58
2019-02-17T19:02:46.174Z,99616.95
2019-02-17T19:05:14.317Z,99577.81
2019-02-17T19:07:43.700Z,99613.16
2019-02-17T19:10:11.797Z,99616.13
2019-02-17T19:12:44.601Z,99616.93
2019-02-17T19:15:12.896Z,99612.53
2019-02-17T19:17:40.759Z,99609.89
2019-02-17T19:20:10.833Z,99614.78
2019-02-17T19:22:38.618Z,99620.70
2019-02-17T19:25:07.766Z,99619.91
2019-02-17T19:27:35.874Z,99547.75
2019-02-17T19:30:06.526Z,99571.28
2019-02-17T19:32:35.345Z,99623.63
2019-02-17T19:35:06.785Z,99626.11
2019-02-17T19:37:34.967Z,99632.02
2019-02-17T19:40:04.097Z,99627.10
2019-02-17T19:42:32.499Z,99632.86
2019-02-17T19:45:03.153Z,99633.43
2019-02-17T19:47:31.002Z,99611.53
2019-02-17T19:50:03.875Z,99625.80
2019-02-17T19:52:32.890Z,99631.38
2019-02-17T19:55:00.943Z,99632.92
2019-02-17T19:57:29.513Z,99631.20
2019-02-17T19:59:57.509Z,99632.07
2019-02-17T20:02:35.083Z,99643.73
2019-02-17T20:05:07.560Z,99606.19
2019-02-17T20:07:35.782Z,99645.63
2019-02-17T20:10:07.238Z,99630.45
2019-02-17T20:12:35.325Z,99647.23
2019-02-17T20:15:04.753Z,99655.09
2019-02-17T20:17:32.826Z,99650.16
2019-02-17T20:20:05.150Z,99647.62
2019-02-17T20:22:34.751Z,99576.63
2019-02-17T20:25:04.863Z,99652.44
2019-02-17T20:27:32.783Z,99656.13
2019-02-17T20:30:01.508Z,99665.58
2019-02-17T20:32:30.546Z,99659.30
2019-02-17T20:34:59.736Z,99636.78
2019-02-17T20:37:32.610Z,99655.41
2019-02-17T20:40:01.123Z,99636.25
2019-02-17T20:42:28.962Z,99631.78
2019-02-17T20:44:57.283Z,99645.13
2019-02-17T20:47:25.936Z,99643.86
2019-02-17T20:49:53.745Z,99623.55
2019-02-17T20:52:21.934Z,99644.60
2019-02-17T20:54:51.094Z,99645.45
2019-02-17T20:57:22.897Z,99642.34
2019-02-17T20:59:51.242Z,99640.00
2019-02-17T21:02:21.036Z,99600.09
2019-02-17T21:04:51.017Z,99639.56
2019-02-17T21:07:18.808Z,99644.80
2019-02-17T21:09:46.620Z,99643.87
2019-02-17T21:12:14.694Z,99637.45
2019-02-17T21:14:42.652Z,99639.81
2019-02-17T21:17:10.934Z,99635.22
2019-02-17T21:19:38.938Z,99690.50
2019-02-17T21:22:06.811Z,99618.00
2019-02-17T21:24:34.998Z,99638.75
2019-02-17T21:27:03.053Z,99631.23
2019-02-17T21:29:31.689Z,99632.17
2019-02-17T21:31:59.964Z,99631.32
2019-02-17T21:34:27.978Z,99608.56
2019-02-17T21:36:56.981Z,99633.74
2019-02-17T21:39:25.354Z,99625.14
2019-02-17T21:41:53.136Z,99624.69
2019-02-17T21:44:21.809Z,99584.41
2019-02-17T21:46:49.937Z,99620.36
2019-02-17T21:49:18.219Z,99624.36
2019-02-17T21:51:46.797Z,99620.54
2019-02-17T21:54:15.287Z,99625.60
2019-02-17T21:56:43.779Z,99624.30
2019-02-17T21:59:11.621Z,99621.25
2019-02-17T22:01:39.648Z,99618.81
2019-02-17T22:04:07.626Z,99618.30
2019-02-17T22:06:35.852Z,99621.27
2019-02-17T22:09:05.296Z,99615.97
2019-02-17T22:11:33.555Z,99623.43
2019-02-17T22:14:01.331Z,99619.09
2019-02-17T22:16:29.146Z,99627.30
2019-02-17T22:18:57.113Z,99621.52
2019-02-17T22:21:25.267Z,99621.48
2019-02-17T22:23:53.305Z,99628.73
2019-02-17T22:26:21.381Z,99623.30
2019-02-17T22:28:49.292Z,99622.43
2019-02-17T22:31:17.372Z,99619.20
2019-02-17T22:33:46.014Z,99559.84
2019-02-17T22:36:14.014Z,99675.41
2019-02-17T22:38:41.775Z,99622.95
2019-02-17T22:41:09.864Z,99584.44
2019-02-17T22:43:37.623Z,99620.50
2019-02-17T22:46:05.419Z,99616.44
2019-02-17T22:48:33.604Z,99619.44
2019-02-17T22:51:01.731Z,99604.18
2019-02-17T22:53:29.784Z,99624.63
2019-02-17T22:55:58.057Z,99628.89
2019-02-17T22:58:26.041Z,99626.60
2019-02-17T23:00:59.034Z,99627.23
2019-02-17T23:03:29.297Z,99624.98
2019-02-17T23:05:57.534Z,99626.09
2019-02-17T23:08:26.044Z,99629.47
2019-02-17T23:10:54.438Z,99622.05
2019-02-17T23:13:23.024Z,99625.96
2019-02-17T23:15:51.828Z,99629.03
2019-02-17T23:18:19.847Z,99625.34
2019-02-17T23:20:47.831Z,99619.66
2019-02-17T23:23:15.772Z,99628.42
2019-02-17T23:25:43.927Z,99592.39
2019-02-17T23:28:11.919Z,99567.92
2019-02-17T23:30:40.065Z,99625.15
2019-02-17T23:33:08.232Z,99629.56
2019-02-17T23:35:35.931Z,99628.58
2019-02-17T23:38:04.291Z,99629.42
2019-02-17T23:40:32.408Z,99623.94
2019-02-17T23:43:00.400Z,99630.63
2019-02-17T23:45:28.830Z,99631.03
2019-02-17T23:47:57.161Z,99626.48
2019-02-17T23:50:25.051Z,99606.83
2019-02-17T23:52:54.703Z,99623.84
2019-02-17T23:55:21.060Z,99626.94
2019-02-17T23:57:49.484Z,99615.33
